Pinesdale, Montana
Current Conditions -  °F | °C
As of 3:53 PM on Monday 24 Nov 2014 (Local Time) from KMSO Reporting Station
Overcast Overcast  
Wind Chill: 33°   Ceiling: 7500
Heat Index: 38°   Visibility: 10mi
Dew Point: 25°   Wind: 7mph
Humidity: 60%   Direction: 270°W
Pressure: 30.3"   Gusts: NA
Location:  46.33°N, 114.22°W
Report Text: KMSO 242253Z 27006KT 10SM SCT050 OVC075 03/M04 A3030 RMK AO2 SLP288 T00331039
Loading
Personal Weather Stations






























Interactive Weather Map New forecast layout! Learn more

10-Day Weather Forecast

Advertisements
Track Severe Weather on mobile